sensor_id;sensor_type;location;lat;lon;timestamp;pressure;altitude;pressure_sealevel;temperature;humidity
35806;BME280;21925;44.608;11.580;2023-04-28T00:02:00;101953.44;;;14.92;88.55
35806;BME280;21925;44.608;11.580;2023-04-28T00:04:27;101947.56;;;14.46;96.76
35806;BME280;21925;44.608;11.580;2023-04-28T00:06:52;101966.22;;;14.37;100.00
35806;BME280;21925;44.608;11.580;2023-04-28T00:09:18;101966.78;;;14.31;100.00
35806;BME280;21925;44.608;11.580;2023-04-28T00:11:44;101953.31;;;14.29;99.39
35806;BME280;21925;44.608;11.580;2023-04-28T00:14:11;101955.63;;;14.51;94.42
35806;BME280;21925;44.608;11.580;2023-04-28T00:16:36;101952.88;;;14.63;91.63
35806;BME280;21925;44.608;11.580;2023-04-28T00:19:02;101971.75;;;14.61;97.87
35806;BME280;21925;44.608;11.580;2023-04-28T00:21:27;101953.13;;;14.70;97.08
35806;BME280;21925;44.608;11.580;2023-04-28T00:23:53;101957.00;;;14.93;91.81
35806;BME280;21925;44.608;11.580;2023-04-28T00:26:19;101919.63;;;14.59;96.71
35806;BME280;21925;44.608;11.580;2023-04-28T00:28:45;101959.09;;;14.60;99.49
35806;BME280;21925;44.608;11.580;2023-04-28T00:31:12;101952.19;;;14.78;97.25
35806;BME280;21925;44.608;11.580;2023-04-28T00:33:42;101940.66;;;14.88;93.41
35806;BME280;21925;44.608;11.580;2023-04-28T00:36:08;101945.50;;;14.79;92.46
35806;BME280;21925;44.608;11.580;2023-04-28T00:38:33;101947.13;;;14.56;94.60
35806;BME280;21925;44.608;11.580;2023-04-28T00:40:59;101959.41;;;14.34;98.67
35806;BME280;21925;44.608;11.580;2023-04-28T00:43:25;101946.78;;;14.01;100.00
35806;BME280;21925;44.608;11.580;2023-04-28T00:45:50;101945.72;;;14.26;100.00
35806;BME280;21925;44.608;11.580;2023-04-28T00:48:17;101927.09;;;14.47;99.66
35806;BME280;21925;44.608;11.580;2023-04-28T00:50:43;101934.84;;;14.65;97.46
35806;BME280;21925;44.608;11.580;2023-04-28T00:53:12;101935.63;;;14.42;100.00
35806;BME280;21925;44.608;11.580;2023-04-28T00:55:38;101933.31;;;14.56;100.00
35806;BME280;21925;44.608;11.580;2023-04-28T00:58:05;101937.69;;;14.33;100.00
35806;BME280;21925;44.608;11.580;2023-04-28T01:00:31;101905.03;;;14.47;96.56
35806;BME280;21925;44.608;11.580;2023-04-28T01:02:57;101904.78;;;14.40;94.56
35806;BME280;21925;44.608;11.580;2023-04-28T01:05:28;101928.41;;;14.49;93.37
35806;BME280;21925;44.608;11.580;2023-04-28T01:07:54;101906.94;;;14.11;100.00
35806;BME280;21925;44.608;11.580;2023-04-28T01:10:20;101925.47;;;14.22;100.00
35806;BME280;21925;44.608;11.580;2023-04-28T01:12:46;101907.25;;;14.41;97.11
35806;BME280;21925;44.608;11.580;2023-04-28T01:15:17;101924.69;;;14.22;97.22
35806;BME280;21925;44.608;11.580;2023-04-28T01:17:45;101924.91;;;14.17;98.06
35806;BME280;21925;44.608;11.580;2023-04-28T01:20:12;101919.81;;;13.74;100.00
35806;BME280;21925;44.608;11.580;2023-04-28T01:22:38;101935.44;;;13.70;100.00
35806;BME280;21925;44.608;11.580;2023-04-28T01:25:04;101915.84;;;13.52;100.00
35806;BME280;21925;44.608;11.580;2023-04-28T01:27:29;101902.91;;;13.64;100.00
35806;BME280;21925;44.608;11.580;2023-04-28T01:29:55;101912.75;;;13.85;100.00
35806;BME280;21925;44.608;11.580;2023-04-28T01:32:22;101927.56;;;14.13;100.00
35806;BME280;21925;44.608;11.580;2023-04-28T01:34:48;101932.94;;;14.22;99.40
35806;BME280;21925;44.608;11.580;2023-04-28T01:37:14;101920.16;;;14.05;98.79
35806;BME280;21925;44.608;11.580;2023-04-28T01:39:39;101934.00;;;14.29;96.47
35806;BME280;21925;44.608;11.580;2023-04-28T01:42:05;101919.41;;;14.17;94.14
35806;BME280;21925;44.608;11.580;2023-04-28T01:44:31;101921.97;;;14.01;94.39
35806;BME280;21925;44.608;11.580;2023-04-28T01:46:57;101945.28;;;14.04;95.89
35806;BME280;21925;44.608;11.580;2023-04-28T01:49:22;101942.94;;;13.82;97.28
35806;BME280;21925;44.608;11.580;2023-04-28T01:51:48;101936.59;;;13.81;100.00
35806;BME280;21925;44.608;11.580;2023-04-28T01:54:13;101944.50;;;14.03;98.83
35806;BME280;21925;44.608;11.580;2023-04-28T01:56:39;101931.03;;;14.02;96.17
35806;BME280;21925;44.608;11.580;2023-04-28T01:59:05;101949.84;;;14.20;97.41
35806;BME280;21925;44.608;11.580;2023-04-28T02:01:35;101949.56;;;13.69;97.50
35806;BME280;21925;44.608;11.580;2023-04-28T02:04:00;101930.50;;;13.23;99.96
35806;BME280;21925;44.608;11.580;2023-04-28T02:06:26;101915.19;;;13.14;100.00
35806;BME280;21925;44.608;11.580;2023-04-28T02:08:52;101946.91;;;13.20;100.00
35806;BME280;21925;44.608;11.580;2023-04-28T02:11:17;101965.97;;;13.25;100.00
35806;BME280;21925;44.608;11.580;2023-04-28T02:13:43;101954.81;;;13.42;100.00
35806;BME280;21925;44.608;11.580;2023-04-28T02:16:08;101966.13;;;13.49;100.00
35806;BME280;21925;44.608;11.580;2023-04-28T02:18:34;101958.75;;;13.41;100.00
35806;BME280;21925;44.608;11.580;2023-04-28T02:21:10;101962.75;;;13.43;100.00
35806;BME280;21925;44.608;11.580;2023-04-28T02:23:36;101962.63;;;13.40;100.00
35806;BME280;21925;44.608;11.580;2023-04-28T02:26:06;101968.13;;;13.40;100.00
35806;BME280;21925;44.608;11.580;2023-04-28T02:28:32;101971.69;;;13.40;100.00
35806;BME280;21925;44.608;11.580;2023-04-28T02:31:08;101964.09;;;13.37;100.00
35806;BME280;21925;44.608;11.580;2023-04-28T02:33:34;101953.00;;;13.25;100.00
35806;BME280;21925;44.608;11.580;2023-04-28T02:36:01;101989.09;;;13.52;100.00
35806;BME280;21925;44.608;11.580;2023-04-28T02:38:27;101979.31;;;13.75;100.00
35806;BME280;21925;44.608;11.580;2023-04-28T02:40:57;101978.69;;;13.90;100.00
35806;BME280;21925;44.608;11.580;2023-04-28T02:43:24;101977.63;;;13.83;100.00
35806;BME280;21925;44.608;11.580;2023-04-28T02:45:50;101970.53;;;13.61;100.00
35806;BME280;21925;44.608;11.580;2023-04-28T02:48:16;101990.28;;;13.84;100.00
35806;BME280;21925;44.608;11.580;2023-04-28T02:50:42;101987.91;;;13.94;100.00
35806;BME280;21925;44.608;11.580;2023-04-28T02:53:07;101983.97;;;14.16;100.00
35806;BME280;21925;44.608;11.580;2023-04-28T02:55:33;101974.38;;;14.45;100.00
35806;BME280;21925;44.608;11.580;2023-04-28T02:57:58;101967.59;;;14.67;100.00
35806;BME280;21925;44.608;11.580;2023-04-28T03:00:24;101958.84;;;14.89;100.00
35806;BME280;21925;44.608;11.580;2023-04-28T03:02:50;101935.03;;;14.84;100.00
35806;BME280;21925;44.608;11.580;2023-04-28T03:05:15;101953.16;;;15.21;100.00
35806;BME280;21925;44.608;11.580;2023-04-28T03:07:41;101940.41;;;15.16;100.00
35806;BME280;21925;44.608;11.580;2023-04-28T03:10:07;101958.13;;;15.27;100.00
35806;BME280;21925;44.608;11.580;2023-04-28T03:12:32;101944.88;;;15.33;100.00
35806;BME280;21925;44.608;11.580;2023-04-28T03:14:58;101933.72;;;15.29;100.00
35806;BME280;21925;44.608;11.580;2023-04-28T03:17:25;101951.16;;;15.45;100.00
35806;BME280;21925;44.608;11.580;2023-04-28T03:19:51;101946.09;;;15.47;100.00
35806;BME280;21925;44.608;11.580;2023-04-28T03:22:16;101942.25;;;15.24;100.00
35806;BME280;21925;44.608;11.580;2023-04-28T03:24:42;101949.31;;;15.49;100.00
35806;BME280;21925;44.608;11.580;2023-04-28T03:27:08;101941.34;;;15.48;100.00
35806;BME280;21925;44.608;11.580;2023-04-28T03:29:35;101956.66;;;15.57;100.00
35806;BME280;21925;44.608;11.580;2023-04-28T03:32:00;101958.50;;;15.53;100.00
35806;BME280;21925;44.608;11.580;2023-04-28T03:34:26;101960.13;;;15.54;100.00
35806;BME280;21925;44.608;11.580;2023-04-28T03:36:52;101949.72;;;15.36;100.00
35806;BME280;21925;44.608;11.580;2023-04-28T03:39:24;101971.47;;;15.65;100.00
35806;BME280;21925;44.608;11.580;2023-04-28T03:41:50;101957.31;;;15.66;100.00
35806;BME280;21925;44.608;11.580;2023-04-28T03:44:33;101959.25;;;15.66;100.00
35806;BME280;21925;44.608;11.580;2023-04-28T03:47:00;101960.81;;;15.51;100.00
35806;BME280;21925;44.608;11.580;2023-04-28T03:49:25;101944.38;;;15.43;100.00
35806;BME280;21925;44.608;11.580;2023-04-28T03:51:51;101964.69;;;15.62;100.00
35806;BME280;21925;44.608;11.580;2023-04-28T03:54:17;101967.53;;;15.50;100.00
35806;BME280;21925;44.608;11.580;2023-04-28T03:56:43;101958.97;;;15.83;100.00
35806;BME280;21925;44.608;11.580;2023-04-28T03:59:08;101941.47;;;15.51;100.00
35806;BME280;21925;44.608;11.580;2023-04-28T04:01:37;101956.66;;;15.57;100.00
35806;BME280;21925;44.608;11.580;2023-04-28T04:04:03;101964.50;;;15.83;100.00
35806;BME280;21925;44.608;11.580;2023-04-28T04:06:29;101941.69;;;15.58;100.00
35806;BME280;21925;44.608;11.580;2023-04-28T04:08:55;101941.25;;;15.72;100.00
35806;BME280;21925;44.608;11.580;2023-04-28T04:11:20;101959.75;;;15.83;100.00
35806;BME280;21925;44.608;11.580;2023-04-28T04:13:46;101951.03;;;15.81;100.00
35806;BME280;21925;44.608;11.580;2023-04-28T04:16:14;101919.22;;;15.75;100.00
35806;BME280;21925;44.608;11.580;2023-04-28T04:18:40;101955.47;;;16.13;100.00
35806;BME280;21925;44.608;11.580;2023-04-28T04:21:16;101949.72;;;16.33;100.00
35806;BME280;21925;44.608;11.580;2023-04-28T04:23:41;101957.59;;;16.19;100.00
35806;BME280;21925;44.608;11.580;2023-04-28T04:26:07;101961.09;;;16.16;100.00
35806;BME280;21925;44.608;11.580;2023-04-28T04:28:33;101961.06;;;16.01;100.00
35806;BME280;21925;44.608;11.580;2023-04-28T04:30:58;101957.34;;;15.54;100.00
35806;BME280;21925;44.608;11.580;2023-04-28T04:33:24;101965.28;;;15.83;100.00
35806;BME280;21925;44.608;11.580;2023-04-28T04:35:50;101959.81;;;15.98;100.00
35806;BME280;21925;44.608;11.580;2023-04-28T04:38:15;101979.34;;;15.90;100.00
35806;BME280;21925;44.608;11.580;2023-04-28T04:40:41;101978.81;;;16.00;100.00
35806;BME280;21925;44.608;11.580;2023-04-28T04:43:06;101977.31;;;15.75;100.00
35806;BME280;21925;44.608;11.580;2023-04-28T04:45:40;101998.91;;;15.97;100.00
35806;BME280;21925;44.608;11.580;2023-04-28T04:48:05;101995.66;;;15.68;100.00
35806;BME280;21925;44.608;11.580;2023-04-28T04:50:31;101994.34;;;15.77;100.00
35806;BME280;21925;44.608;11.580;2023-04-28T04:52:56;101991.59;;;16.04;100.00
35806;BME280;21925;44.608;11.580;2023-04-28T04:55:22;101977.94;;;16.11;100.00
35806;BME280;21925;44.608;11.580;2023-04-28T04:57:48;101991.84;;;15.99;100.00
35806;BME280;21925;44.608;11.580;2023-04-28T05:00:34;101971.44;;;15.77;100.00
35806;BME280;21925;44.608;11.580;2023-04-28T05:03:01;101996.56;;;15.72;100.00
35806;BME280;21925;44.608;11.580;2023-04-28T05:05:28;102012.53;;;15.90;100.00
35806;BME280;21925;44.608;11.580;2023-04-28T05:08:18;101989.13;;;15.60;100.00
35806;BME280;21925;44.608;11.580;2023-04-28T05:10:44;102019.88;;;15.59;100.00
35806;BME280;21925;44.608;11.580;2023-04-28T05:13:09;101994.03;;;15.39;100.00
35806;BME280;21925;44.608;11.580;2023-04-28T05:15:35;102016.88;;;15.64;100.00
35806;BME280;21925;44.608;11.580;2023-04-28T05:18:33;101995.44;;;15.33;100.00
35806;BME280;21925;44.608;11.580;2023-04-28T05:20:58;102010.81;;;15.58;100.00
35806;BME280;21925;44.608;11.580;2023-04-28T05:23:25;102010.81;;;15.46;100.00
35806;BME280;21925;44.608;11.580;2023-04-28T05:25:50;102010.16;;;15.77;100.00
35806;BME280;21925;44.608;11.580;2023-04-28T05:28:16;102009.53;;;15.83;100.00
35806;BME280;21925;44.608;11.580;2023-04-28T05:30:43;101999.03;;;15.89;100.00
35806;BME280;21925;44.608;11.580;2023-04-28T05:33:09;101989.44;;;15.98;100.00
35806;BME280;21925;44.608;11.580;2023-04-28T05:35:36;102002.69;;;16.20;100.00
35806;BME280;21925;44.608;11.580;2023-04-28T05:38:01;101988.94;;;16.23;100.00
35806;BME280;21925;44.608;11.580;2023-04-28T05:40:27;102008.47;;;16.58;100.00
35806;BME280;21925;44.608;11.580;2023-04-28T05:42:54;101995.38;;;16.55;100.00
35806;BME280;21925;44.608;11.580;2023-04-28T05:45:20;102001.41;;;16.02;100.00
35806;BME280;21925;44.608;11.580;2023-04-28T05:47:46;101998.25;;;15.88;100.00
35806;BME280;21925;44.608;11.580;2023-04-28T05:50:12;102011.88;;;15.81;100.00
35806;BME280;21925;44.608;11.580;2023-04-28T05:52:37;102015.63;;;15.61;100.00
35806;BME280;21925;44.608;11.580;2023-04-28T05:55:03;102010.47;;;15.87;100.00
35806;BME280;21925;44.608;11.580;2023-04-28T05:57:30;102019.91;;;16.13;100.00
35806;BME280;21925;44.608;11.580;2023-04-28T05:59:56;102012.94;;;16.47;100.00
35806;BME280;21925;44.608;11.580;2023-04-28T06:02:21;102019.72;;;16.65;100.00
35806;BME280;21925;44.608;11.580;2023-04-28T06:04:47;102018.16;;;16.64;100.00
35806;BME280;21925;44.608;11.580;2023-04-28T06:07:13;102021.84;;;17.17;100.00
35806;BME280;21925;44.608;11.580;2023-04-28T06:09:39;101993.19;;;16.79;100.00
35806;BME280;21925;44.608;11.580;2023-04-28T06:12:04;102013.47;;;16.98;100.00
35806;BME280;21925;44.608;11.580;2023-04-28T06:14:30;102016.13;;;17.10;100.00
35806;BME280;21925;44.608;11.580;2023-04-28T06:16:56;102013.25;;;17.22;100.00
35806;BME280;21925;44.608;11.580;2023-04-28T06:19:22;102019.50;;;17.35;100.00
35806;BME280;21925;44.608;11.580;2023-04-28T06:21:47;101995.84;;;17.06;100.00
35806;BME280;21925;44.608;11.580;2023-04-28T06:24:15;102019.25;;;17.40;100.00
35806;BME280;21925;44.608;11.580;2023-04-28T06:26:44;102013.31;;;17.41;100.00
35806;BME280;21925;44.608;11.580;2023-04-28T06:29:09;102011.66;;;17.56;100.00
35806;BME280;21925;44.608;11.580;2023-04-28T06:31:35;102022.31;;;18.10;100.00
35806;BME280;21925;44.608;11.580;2023-04-28T06:34:01;102000.72;;;18.41;100.00
35806;BME280;21925;44.608;11.580;2023-04-28T06:36:26;102004.81;;;18.47;100.00
35806;BME280;21925;44.608;11.580;2023-04-28T06:38:52;102012.34;;;18.69;100.00
35806;BME280;21925;44.608;11.580;2023-04-28T06:41:18;102016.63;;;18.86;100.00
35806;BME280;21925;44.608;11.580;2023-04-28T06:43:47;101999.41;;;19.03;100.00
35806;BME280;21925;44.608;11.580;2023-04-28T06:46:38;101990.78;;;18.85;100.00
35806;BME280;21925;44.608;11.580;2023-04-28T06:49:05;102011.69;;;19.24;100.00
35806;BME280;21925;44.608;11.580;2023-04-28T06:51:31;102004.34;;;19.13;100.00
35806;BME280;21925;44.608;11.580;2023-04-28T06:53:57;102003.84;;;18.81;100.00
35806;BME280;21925;44.608;11.580;2023-04-28T06:56:23;101996.00;;;18.64;99.84
35806;BME280;21925;44.608;11.580;2023-04-28T06:58:49;101987.00;;;18.48;100.00
35806;BME280;21925;44.608;11.580;2023-04-28T07:01:15;102002.63;;;18.56;100.00
35806;BME280;21925;44.608;11.580;2023-04-28T07:03:41;102003.56;;;18.23;100.00
35806;BME280;21925;44.608;11.580;2023-04-28T07:06:06;102006.44;;;18.48;100.00
35806;BME280;21925;44.608;11.580;2023-04-28T07:08:33;102021.19;;;18.75;100.00
35806;BME280;21925;44.608;11.580;2023-04-28T07:10:58;102017.03;;;19.10;100.00
35806;BME280;21925;44.608;11.580;2023-04-28T07:13:24;101990.94;;;18.96;99.58
35806;BME280;21925;44.608;11.580;2023-04-28T07:15:49;102029.13;;;18.76;100.00
35806;BME280;21925;44.608;11.580;2023-04-28T07:18:15;102020.63;;;18.88;100.00
35806;BME280;21925;44.608;11.580;2023-04-28T07:20:41;102013.25;;;18.99;100.00
35806;BME280;21925;44.608;11.580;2023-04-28T07:23:06;102000.19;;;18.77;99.14
35806;BME280;21925;44.608;11.580;2023-04-28T07:25:32;102017.53;;;18.93;100.00
35806;BME280;21925;44.608;11.580;2023-04-28T07:27:57;101996.66;;;18.80;100.00
35806;BME280;21925;44.608;11.580;2023-04-28T07:30:23;101974.72;;;18.49;100.00
35806;BME280;21925;44.608;11.580;2023-04-28T07:32:48;102001.50;;;18.39;100.00
35806;BME280;21925;44.608;11.580;2023-04-28T07:35:14;101986.84;;;18.64;100.00
35806;BME280;21925;44.608;11.580;2023-04-28T07:37:40;101960.72;;;18.68;100.00
35806;BME280;21925;44.608;11.580;2023-04-28T07:40:05;101961.44;;;19.69;96.58
35806;BME280;21925;44.608;11.580;2023-04-28T07:42:31;101994.56;;;19.81;94.68
35806;BME280;21925;44.608;11.580;2023-04-28T07:44:57;101982.72;;;19.54;98.43
35806;BME280;21925;44.608;11.580;2023-04-28T07:47:23;101977.22;;;19.61;97.76
35806;BME280;21925;44.608;11.580;2023-04-28T07:49:49;101976.38;;;19.28;96.06
35806;BME280;21925;44.608;11.580;2023-04-28T07:52:15;101993.06;;;19.87;97.14
35806;BME280;21925;44.608;11.580;2023-04-28T07:54:40;101968.53;;;19.96;91.50
35806;BME280;21925;44.608;11.580;2023-04-28T07:57:06;102001.03;;;20.17;90.93
35806;BME280;21925;44.608;11.580;2023-04-28T07:59:33;102007.75;;;20.53;89.76
35806;BME280;21925;44.608;11.580;2023-04-28T08:01:58;102000.00;;;20.76;88.50
35806;BME280;21925;44.608;11.580;2023-04-28T08:04:24;102006.03;;;20.41;89.48
35806;BME280;21925;44.608;11.580;2023-04-28T08:06:49;101994.16;;;20.88;88.99
35806;BME280;21925;44.608;11.580;2023-04-28T08:09:15;101985.19;;;21.15;85.51
35806;BME280;21925;44.608;11.580;2023-04-28T08:11:41;101976.28;;;21.60;84.29
35806;BME280;21925;44.608;11.580;2023-04-28T08:14:06;101983.16;;;21.72;81.86
35806;BME280;21925;44.608;11.580;2023-04-28T08:16:32;101953.38;;;21.23;83.55
35806;BME280;21925;44.608;11.580;2023-04-28T08:19:01;101995.72;;;21.39;86.00
35806;BME280;21925;44.608;11.580;2023-04-28T08:21:26;101964.81;;;21.78;81.99
35806;BME280;21925;44.608;11.580;2023-04-28T08:23:52;101990.81;;;21.96;82.37
35806;BME280;21925;44.608;11.580;2023-04-28T08:26:17;102006.44;;;22.18;82.02
35806;BME280;21925;44.608;11.580;2023-04-28T08:28:43;101994.81;;;21.95;80.69
35806;BME280;21925;44.608;11.580;2023-04-28T08:31:09;102002.03;;;22.10;79.47
35806;BME280;21925;44.608;11.580;2023-04-28T08:33:34;101978.16;;;22.30;76.56
35806;BME280;21925;44.608;11.580;2023-04-28T08:36:00;101969.78;;;22.82;74.44
35806;BME280;21925;44.608;11.580;2023-04-28T08:38:25;102001.94;;;23.98;73.71
35806;BME280;21925;44.608;11.580;2023-04-28T08:40:51;102005.75;;;23.29;74.36
35806;BME280;21925;44.608;11.580;2023-04-28T08:43:17;101995.75;;;23.32;72.79
35806;BME280;21925;44.608;11.580;2023-04-28T08:45:43;101974.97;;;23.01;72.08
35806;BME280;21925;44.608;11.580;2023-04-28T08:48:20;101990.50;;;23.51;70.45
35806;BME280;21925;44.608;11.580;2023-04-28T08:50:51;101999.56;;;23.90;69.42
35806;BME280;21925;44.608;11.580;2023-04-28T08:53:24;101996.75;;;24.61;70.72
35806;BME280;21925;44.608;11.580;2023-04-28T08:55:55;101999.28;;;23.56;71.88
35806;BME280;21925;44.608;11.580;2023-04-28T08:58:25;101966.56;;;23.19;72.12
35806;BME280;21925;44.608;11.580;2023-04-28T09:00:51;101998.47;;;23.59;70.07
35806;BME280;21925;44.608;11.580;2023-04-28T09:03:17;101987.78;;;22.92;74.15
35806;BME280;21925;44.608;11.580;2023-04-28T09:05:43;101988.97;;;23.19;72.95
35806;BME280;21925;44.608;11.580;2023-04-28T09:08:08;101965.88;;;24.04;68.86
35806;BME280;21925;44.608;11.580;2023-04-28T09:10:36;101976.91;;;25.29;67.11
35806;BME280;21925;44.608;11.580;2023-04-28T09:13:02;101973.31;;;25.29;63.70
35806;BME280;21925;44.608;11.580;2023-04-28T09:17:54;101954.31;;;24.63;61.68
35806;BME280;21925;44.608;11.580;2023-04-28T09:20:24;101983.31;;;24.90;62.62
35806;BME280;21925;44.608;11.580;2023-04-28T09:22:51;101963.72;;;25.26;62.18
35806;BME280;21925;44.608;11.580;2023-04-28T09:25:18;101981.84;;;25.55;62.73
35806;BME280;21925;44.608;11.580;2023-04-28T09:27:45;101969.69;;;25.65;64.29
35806;BME280;21925;44.608;11.580;2023-04-28T09:30:11;101970.22;;;26.16;61.55
35806;BME280;21925;44.608;11.580;2023-04-28T09:32:37;101976.34;;;26.38;61.64
35806;BME280;21925;44.608;11.580;2023-04-28T09:35:03;101961.53;;;27.48;60.85
35806;BME280;21925;44.608;11.580;2023-04-28T09:37:29;101956.09;;;27.18;58.24
35806;BME280;21925;44.608;11.580;2023-04-28T09:39:57;101967.75;;;26.22;59.31
35806;BME280;21925;44.608;11.580;2023-04-28T09:42:31;101953.28;;;26.95;60.11
35806;BME280;21925;44.608;11.580;2023-04-28T09:44:57;101963.66;;;27.44;60.04
35806;BME280;21925;44.608;11.580;2023-04-28T09:47:23;101950.25;;;28.57;58.58
35806;BME280;21925;44.608;11.580;2023-04-28T09:49:53;101956.94;;;27.38;57.58
35806;BME280;21925;44.608;11.580;2023-04-28T09:52:21;101959.78;;;27.77;57.94
35806;BME280;21925;44.608;11.580;2023-04-28T09:54:49;101959.06;;;28.59;58.04
35806;BME280;21925;44.608;11.580;2023-04-28T09:57:15;101954.22;;;28.44;56.42
35806;BME280;21925;44.608;11.580;2023-04-28T09:59:46;101950.16;;;27.74;56.44
35806;BME280;21925;44.608;11.580;2023-04-28T10:02:14;101959.81;;;27.93;55.47
35806;BME280;21925;44.608;11.580;2023-04-28T10:04:45;101949.44;;;28.25;56.78
35806;BME280;21925;44.608;11.580;2023-04-28T10:07:13;101924.00;;;27.74;56.04
35806;BME280;21925;44.608;11.580;2023-04-28T10:09:44;101927.41;;;28.52;58.12
35806;BME280;21925;44.608;11.580;2023-04-28T10:12:13;101933.13;;;28.32;55.27
35806;BME280;21925;44.608;11.580;2023-04-28T10:14:43;101929.78;;;28.53;56.15
35806;BME280;21925;44.608;11.580;2023-04-28T10:17:11;101883.25;;;27.94;56.66
35806;BME280;21925;44.608;11.580;2023-04-28T10:19:40;101883.41;;;27.13;55.76
35806;BME280;21925;44.608;11.580;2023-04-28T10:25:19;101898.44;;;26.35;57.64
35806;BME280;21925;44.608;11.580;2023-04-28T10:27:50;101925.56;;;27.36;57.68
35806;BME280;21925;44.608;11.580;2023-04-28T10:30:19;101859.34;;;26.86;54.15
35806;BME280;21925;44.608;11.580;2023-04-28T10:33:21;101873.50;;;28.15;54.77
35806;BME280;21925;44.608;11.580;2023-04-28T10:35:47;101838.09;;;28.29;52.32
35806;BME280;21925;44.608;11.580;2023-04-28T10:38:15;101853.75;;;28.15;53.50
35806;BME280;21925;44.608;11.580;2023-04-28T10:40:46;101817.28;;;28.39;54.50
35806;BME280;21925;44.608;11.580;2023-04-28T10:43:34;101904.97;;;29.37;52.04
35806;BME280;21925;44.608;11.580;2023-04-28T10:46:07;101896.97;;;28.75;51.87
35806;BME280;21925;44.608;11.580;2023-04-28T10:56:27;101826.00;;;29.71;49.86
35806;BME280;21925;44.608;11.580;2023-04-28T10:58:58;101867.38;;;29.24;50.32
35806;BME280;21925;44.608;11.580;2023-04-28T11:01:31;101795.00;;;29.42;50.13
35806;BME280;21925;44.608;11.580;2023-04-28T11:04:09;101871.91;;;30.62;49.08
35806;BME280;21925;44.608;11.580;2023-04-28T11:06:41;101869.13;;;31.17;49.37
35806;BME280;21925;44.608;11.580;2023-04-28T11:16:58;101841.41;;;28.09;50.39
35806;BME280;21925;44.608;11.580;2023-04-28T11:19:27;101867.19;;;28.42;51.12
35806;BME280;21925;44.608;11.580;2023-04-28T11:21:56;101771.94;;;28.46;50.16
35806;BME280;21925;44.608;11.580;2023-04-28T11:24:23;101826.44;;;28.27;52.08
35806;BME280;21925;44.608;11.580;2023-04-28T11:26:56;101844.75;;;28.20;50.72
35806;BME280;21925;44.608;11.580;2023-04-28T11:29:37;101836.97;;;27.76;50.23
35806;BME280;21925;44.608;11.580;2023-04-28T11:32:04;101831.56;;;28.48;53.09
35806;BME280;21925;44.608;11.580;2023-04-28T11:34:31;101828.63;;;28.20;50.97
35806;BME280;21925;44.608;11.580;2023-04-28T11:36:58;101825.75;;;29.40;50.31
35806;BME280;21925;44.608;11.580;2023-04-28T11:39:27;101829.41;;;29.25;49.66
35806;BME280;21925;44.608;11.580;2023-04-28T11:41:57;101777.50;;;29.97;49.70
35806;BME280;21925;44.608;11.580;2023-04-28T11:44:26;101835.34;;;30.42;48.34
35806;BME280;21925;44.608;11.580;2023-04-28T11:47:02;101832.22;;;31.08;48.55
35806;BME280;21925;44.608;11.580;2023-04-28T11:49:30;101843.06;;;31.31;48.88
35806;BME280;21925;44.608;11.580;2023-04-28T11:52:03;101838.69;;;30.03;48.01
35806;BME280;21925;44.608;11.580;2023-04-28T11:54:31;101828.50;;;29.28;50.34
35806;BME280;21925;44.608;11.580;2023-04-28T11:56:58;101824.31;;;29.61;49.16
35806;BME280;21925;44.608;11.580;2023-04-28T11:59:43;101808.72;;;29.28;49.79
35806;BME280;21925;44.608;11.580;2023-04-28T12:02:11;101806.78;;;30.03;48.25
35806;BME280;21925;44.608;11.580;2023-04-28T12:04:41;101794.03;;;29.33;49.06
35806;BME280;21925;44.608;11.580;2023-04-28T12:12:07;101824.97;;;30.27;49.74
35806;BME280;21925;44.608;11.580;2023-04-28T12:17:28;101819.19;;;30.77;48.73
35806;BME280;21925;44.608;11.580;2023-04-28T12:19:56;101810.91;;;30.48;48.55
35806;BME280;21925;44.608;11.580;2023-04-28T12:22:22;101821.19;;;30.55;47.67
35806;BME280;21925;44.608;11.580;2023-04-28T12:27:29;101812.75;;;30.30;48.07
35806;BME280;21925;44.608;11.580;2023-04-28T12:29:55;101812.41;;;29.53;48.54
35806;BME280;21925;44.608;11.580;2023-04-28T12:32:41;101798.25;;;29.41;48.32
35806;BME280;21925;44.608;11.580;2023-04-28T12:35:09;101794.31;;;29.63;49.59
35806;BME280;21925;44.608;11.580;2023-04-28T12:37:36;101789.47;;;29.51;49.51
35806;BME280;21925;44.608;11.580;2023-04-28T12:40:05;101779.75;;;30.48;49.30
35806;BME280;21925;44.608;11.580;2023-04-28T12:42:30;101782.38;;;30.77;47.54
35806;BME280;21925;44.608;11.580;2023-04-28T12:44:56;101775.38;;;30.90;47.03
35806;BME280;21925;44.608;11.580;2023-04-28T12:47:22;101779.06;;;31.21;47.28
35806;BME280;21925;44.608;11.580;2023-04-28T12:49:48;101764.09;;;31.51;46.62
35806;BME280;21925;44.608;11.580;2023-04-28T12:52:16;101764.97;;;30.66;48.61
35806;BME280;21925;44.608;11.580;2023-04-28T12:54:41;101771.56;;;30.84;48.39
35806;BME280;21925;44.608;11.580;2023-04-28T12:57:12;101765.91;;;30.84;46.34
35806;BME280;21925;44.608;11.580;2023-04-28T12:59:38;101765.09;;;30.83;46.50
35806;BME280;21925;44.608;11.580;2023-04-28T13:02:04;101746.47;;;31.77;46.33
35806;BME280;21925;44.608;11.580;2023-04-28T13:04:30;101748.13;;;31.05;46.13
35806;BME280;21925;44.608;11.580;2023-04-28T13:06:56;101744.03;;;31.06;46.46
35806;BME280;21925;44.608;11.580;2023-04-28T13:09:23;101746.75;;;31.40;45.38